createdAt,value
2019-03-19T00:01:46.027Z,11.85
2019-03-19T00:06:50.771Z,11.54
2019-03-19T00:11:57.738Z,12.18
2019-03-19T00:17:01.686Z,12.03
2019-03-19T00:22:06.432Z,11.68
2019-03-19T05:49:08.983Z,15.45
2019-03-19T05:54:13.949Z,15.74
2019-03-19T05:59:19.329Z,15.10
2019-03-19T06:04:24.129Z,14.98
2019-03-19T06:09:28.707Z,15.62
2019-03-19T06:14:33.516Z,15.60
2019-03-19T06:19:38.212Z,15.92
2019-03-19T06:24:43.922Z,15.90
2019-03-19T06:29:48.681Z,14.49
2019-03-19T06:34:53.410Z,15.52
2019-03-19T06:39:58.152Z,15.09
2019-03-19T06:45:02.798Z,16.01
2019-03-19T06:50:12.895Z,15.98
2019-03-19T06:55:18.629Z,16.38
2019-03-19T07:00:26.452Z,16.69
2019-03-19T07:05:31.191Z,16.89
2019-03-19T07:10:35.733Z,17.01
2019-03-19T07:15:40.471Z,16.50
2019-03-19T07:20:45.859Z,17.14
2019-03-19T07:25:50.574Z,17.36
2019-03-19T07:30:55.866Z,16.96
2019-03-19T07:36:00.570Z,17.59
2019-03-19T07:41:05.309Z,17.46
2019-03-19T07:46:10.260Z,17.44
2019-03-19T07:51:15.108Z,17.53
2019-03-19T07:56:19.859Z,18.24
2019-03-19T08:01:24.780Z,18.08
2019-03-19T08:06:29.746Z,18.51
2019-03-19T08:11:34.491Z,18.27
2019-03-19T08:16:39.237Z,18.95
2019-03-19T08:21:43.978Z,18.81
2019-03-19T08:26:49.230Z,18.96
2019-03-19T08:31:54.076Z,19.78
2019-03-19T08:36:58.823Z,19.82
2019-03-19T08:42:03.565Z,19.03
2019-03-19T08:47:08.309Z,19.43
2019-03-19T08:52:14.157Z,19.28
2019-03-19T08:57:19.236Z,19.34
2019-03-19T09:02:23.910Z,20.01
2019-03-19T09:07:28.619Z,20.08
2019-03-19T09:12:33.357Z,19.49
2019-03-19T09:17:38.208Z,20.46
2019-03-19T09:22:42.906Z,20.88
2019-03-19T09:27:47.591Z,20.97
2019-03-19T09:32:52.183Z,21.08
2019-03-19T09:37:58.705Z,22.03
2019-03-19T09:43:03.258Z,22.08
2019-03-19T09:48:09.843Z,22.19
2019-03-19T09:53:14.592Z,22.43
2019-03-19T09:58:19.229Z,22.74
2019-03-19T10:03:24.077Z,22.02
2019-03-19T10:08:30.589Z,21.76
2019-03-19T10:13:37.858Z,21.71
2019-03-19T10:18:43.322Z,21.99
2019-03-19T10:23:48.066Z,22.03
2019-03-19T10:28:52.711Z,21.69
2019-03-19T10:33:57.555Z,21.38
2019-03-19T10:39:02.301Z,21.69
2019-03-19T10:44:07.146Z,21.49
2019-03-19T10:49:11.889Z,21.19
2019-03-19T10:54:16.631Z,21.19
2019-03-19T10:59:21.383Z,21.64
2019-03-19T11:04:26.119Z,21.87
2019-03-19T11:09:30.864Z,21.77
2019-03-19T11:14:35.606Z,21.35
2019-03-19T11:19:40.355Z,21.57
2019-03-19T11:24:45.095Z,20.78
2019-03-19T11:29:59.544Z,20.66
2019-03-19T11:34:57.549Z,20.80
2019-03-19T11:40:02.295Z,21.15
2019-03-19T11:45:10.828Z,21.34
2019-03-19T11:50:33.198Z,21.97
2019-03-19T11:55:37.114Z,21.61
2019-03-19T12:00:43.393Z,22.31
2019-03-19T12:05:47.990Z,22.10
2019-03-19T12:10:52.775Z,22.62
2019-03-19T12:15:57.361Z,21.13
2019-03-19T12:21:03.285Z,22.08
2019-03-19T12:26:08.030Z,22.42
2019-03-19T12:31:14.320Z,21.60
2019-03-19T12:36:19.060Z,22.77
2019-03-19T12:41:23.796Z,22.16
2019-03-19T12:46:28.759Z,22.59
2019-03-19T12:51:33.592Z,22.44
2019-03-19T12:56:38.333Z,22.21
2019-03-19T13:01:43.086Z,21.51
2019-03-19T13:06:47.824Z,22.02
2019-03-19T13:11:52.376Z,21.88
2019-03-19T13:16:58.522Z,21.74
2019-03-19T13:22:03.177Z,21.67
2019-03-19T13:27:09.653Z,21.12
2019-03-19T13:32:14.788Z,21.54
2019-03-19T13:37:19.563Z,21.75
2019-03-19T13:42:24.136Z,22.31
2019-03-19T13:47:28.947Z,21.66
2019-03-19T13:52:33.588Z,20.56
2019-03-19T13:57:38.243Z,21.11
2019-03-19T14:02:42.870Z,21.28
2019-03-19T14:07:47.716Z,21.66
2019-03-19T14:12:52.459Z,20.66
2019-03-19T14:17:57.009Z,21.52
2019-03-19T14:23:01.747Z,21.27
2019-03-19T14:28:08.739Z,20.94
2019-03-19T14:33:13.487Z,21.06
2019-03-19T14:38:18.229Z,21.29
2019-03-19T14:43:22.984Z,20.53
2019-03-19T14:48:27.862Z,20.51
2019-03-19T14:53:32.566Z,20.79
2019-03-19T14:58:41.321Z,19.52
2019-03-19T15:03:46.042Z,20.25
2019-03-19T15:08:51.121Z,20.17
2019-03-19T15:13:55.836Z,19.70
2019-03-19T15:19:00.580Z,19.27
2019-03-19T15:24:05.330Z,19.22
2019-03-19T15:29:10.073Z,19.77
2019-03-19T15:34:32.221Z,19.88
2019-03-19T15:39:36.875Z,19.05
2019-03-19T15:44:41.928Z,19.37
2019-03-19T15:49:46.657Z,19.17
2019-03-19T15:54:51.424Z,19.32
2019-03-19T15:59:56.147Z,19.33
2019-03-19T16:05:00.988Z,19.58
2019-03-19T16:10:08.099Z,19.53
2019-03-19T16:15:22.645Z,19.23
2019-03-19T16:20:27.412Z,18.71
2019-03-19T16:25:32.158Z,18.58
2019-03-19T16:30:36.897Z,18.54
2019-03-19T16:35:41.948Z,19.07
2019-03-19T16:40:46.990Z,19.44
2019-03-19T16:45:51.635Z,19.01
2019-03-19T16:50:57.506Z,18.43
2019-03-19T16:56:02.370Z,18.77
2019-03-19T17:01:07.714Z,18.25
2019-03-19T17:06:13.067Z,18.27
2019-03-19T17:11:18.839Z,17.60
2019-03-19T17:16:23.594Z,17.11
2019-03-19T17:21:28.616Z,17.05
2019-03-19T17:26:38.269Z,17.35
2019-03-19T17:31:43.031Z,16.54
2019-03-19T17:36:49.929Z,16.60
2019-03-19T17:41:54.564Z,16.40
2019-03-19T17:46:59.522Z,15.96
2019-03-19T17:52:06.167Z,15.68
2019-03-19T17:57:12.348Z,16.08
2019-03-19T18:02:23.989Z,15.57
2019-03-19T18:07:25.864Z,15.61
2019-03-19T18:12:30.605Z,15.52
2019-03-19T18:17:35.473Z,15.70
2019-03-19T18:22:42.245Z,16.29
2019-03-19T18:27:47.135Z,16.37
2019-03-19T18:32:52.208Z,16.37
2019-03-19T18:37:59.850Z,16.24
2019-03-19T18:43:05.732Z,16.30
2019-03-19T18:48:13.871Z,16.08
2019-03-19T18:53:20.535Z,15.70
2019-03-19T18:58:25.668Z,15.21
2019-03-19T19:03:31.900Z,15.06
2019-03-19T19:08:37.426Z,15.30
2019-03-19T19:13:42.678Z,15.07
2019-03-19T19:18:51.600Z,14.78
2019-03-19T19:23:58.933Z,14.55
2019-03-19T19:29:05.102Z,14.58
2019-03-19T19:34:10.987Z,14.58
2019-03-19T19:39:18.869Z,13.86
2019-03-19T19:44:29.834Z,13.29
2019-03-19T19:49:34.775Z,13.37
2019-03-19T19:54:39.650Z,12.85
2019-03-19T19:59:47.917Z,13.63
2019-03-19T20:05:02.995Z,13.44
2019-03-19T20:10:02.095Z,13.17
2019-03-19T20:15:12.155Z,13.04
2019-03-19T20:20:20.593Z,13.32
2019-03-19T20:25:27.693Z,13.23
2019-03-19T20:30:34.311Z,12.85
2019-03-19T20:35:40.867Z,12.73
2019-03-19T20:40:45.507Z,12.55
2019-03-19T20:45:50.660Z,12.62
2019-03-19T20:50:56.080Z,11.65
2019-03-19T20:56:00.975Z,12.29
2019-03-19T21:01:08.887Z,12.38
2019-03-19T21:06:13.827Z,11.87
2019-03-19T21:11:20.212Z,12.23
2019-03-19T21:16:25.679Z,12.36
2019-03-19T21:21:30.919Z,12.28
2019-03-19T21:26:35.562Z,12.37
2019-03-19T21:31:40.306Z,12.26
2019-03-19T21:36:45.047Z,12.15
2019-03-19T21:41:52.350Z,11.57
2019-03-19T21:46:57.161Z,10.80
2019-03-19T21:52:01.941Z,11.36
2019-03-19T21:57:06.685Z,11.82
2019-03-19T22:02:11.325Z,11.85
2019-03-19T22:07:17.706Z,11.84
2019-03-19T22:12:22.450Z,10.77
2019-03-19T22:17:28.321Z,10.53
2019-03-19T22:22:33.065Z,11.25
2019-03-19T22:27:37.806Z,10.50
2019-03-19T22:32:42.466Z,10.55
2019-03-19T22:37:49.134Z,10.53
2019-03-19T22:42:56.145Z,10.37
2019-03-19T22:48:00.874Z,10.74
2019-03-19T22:53:07.042Z,10.62
2019-03-19T22:58:12.910Z,10.52
2019-03-19T23:03:17.766Z,10.07
2019-03-19T23:08:22.508Z,10.64
2019-03-19T23:13:28.173Z,10.54
2019-03-19T23:18:32.819Z,10.83
2019-03-19T23:23:40.421Z,11.40
2019-03-19T23:28:45.679Z,10.37
2019-03-19T23:33:50.463Z,9.88
2019-03-19T23:38:56.761Z,9.70
2019-03-19T23:44:01.602Z,10.03
2019-03-19T23:49:08.949Z,10.58
2019-03-19T23:54:13.692Z,9.70
2019-03-19T23:59:21.609Z,9.56
